sensor_id;sensor_type;location;lat;lon;timestamp;pressure;altitude;pressure_sealevel;temperature;humidity
10852;BME280;5479;52.046;6.314;2023-02-04T00:00:20;103108.97;;;7.36;100.00
10852;BME280;5479;52.046;6.314;2023-02-04T00:02:48;103102.03;;;7.22;100.00
10852;BME280;5479;52.046;6.314;2023-02-04T00:05:16;103104.72;;;7.21;100.00
10852;BME280;5479;52.046;6.314;2023-02-04T00:07:45;103093.25;;;7.23;100.00
10852;BME280;5479;52.046;6.314;2023-02-04T00:10:16;103103.84;;;7.17;100.00
10852;BME280;5479;52.046;6.314;2023-02-04T00:12:44;103109.03;;;7.29;100.00
10852;BME280;5479;52.046;6.314;2023-02-04T00:15:12;103101.13;;;7.28;100.00
10852;BME280;5479;52.046;6.314;2023-02-04T00:17:41;103106.38;;;7.28;100.00
10852;BME280;5479;52.046;6.314;2023-02-04T00:20:10;103115.19;;;7.28;100.00
10852;BME280;5479;52.046;6.314;2023-02-04T00:22:38;103113.41;;;7.29;100.00
10852;BME280;5479;52.046;6.314;2023-02-04T00:25:09;103119.63;;;7.23;100.00
10852;BME280;5479;52.046;6.314;2023-02-04T00:27:37;103121.31;;;7.30;100.00
10852;BME280;5479;52.046;6.314;2023-02-04T00:30:07;103125.72;;;7.28;100.00
10852;BME280;5479;52.046;6.314;2023-02-04T00:32:35;103121.41;;;7.21;100.00
10852;BME280;5479;52.046;6.314;2023-02-04T00:35:05;103124.91;;;7.20;100.00
10852;BME280;5479;52.046;6.314;2023-02-04T00:37:33;103135.44;;;7.20;100.00
10852;BME280;5479;52.046;6.314;2023-02-04T00:40:01;103131.06;;;7.21;100.00
10852;BME280;5479;52.046;6.314;2023-02-04T00:42:29;103131.00;;;7.25;100.00
10852;BME280;5479;52.046;6.314;2023-02-04T00:44:57;103114.31;;;7.26;100.00
10852;BME280;5479;52.046;6.314;2023-02-04T00:47:29;103121.41;;;7.21;100.00
10852;BME280;5479;52.046;6.314;2023-02-04T00:49:58;103130.13;;;7.25;100.00
10852;BME280;5479;52.046;6.314;2023-02-04T00:52:28;103131.09;;;7.16;100.00
10852;BME280;5479;52.046;6.314;2023-02-04T00:54:56;103135.44;;;7.23;100.00
10852;BME280;5479;52.046;6.314;2023-02-04T00:57:24;103138.94;;;7.22;100.00
10852;BME280;5479;52.046;6.314;2023-02-04T00:59:53;103139.88;;;7.18;100.00
10852;BME280;5479;52.046;6.314;2023-02-04T01:02:22;103137.28;;;7.12;100.00
10852;BME280;5479;52.046;6.314;2023-02-04T01:04:50;103142.53;;;7.12;100.00
10852;BME280;5479;52.046;6.314;2023-02-04T01:07:18;103149.56;;;7.13;100.00
10852;BME280;5479;52.046;6.314;2023-02-04T01:09:48;103158.34;;;7.14;100.00
10852;BME280;5479;52.046;6.314;2023-02-04T01:12:16;103159.22;;;7.16;100.00
10852;BME280;5479;52.046;6.314;2023-02-04T01:14:44;103160.94;;;7.17;100.00
10852;BME280;5479;52.046;6.314;2023-02-04T01:17:12;103161.88;;;7.13;100.00
10852;BME280;5479;52.046;6.314;2023-02-04T01:19:40;103160.09;;;7.16;100.00
10852;BME280;5479;52.046;6.314;2023-02-04T01:22:08;103166.25;;;7.15;100.00
10852;BME280;5479;52.046;6.314;2023-02-04T01:24:36;103165.38;;;7.13;100.00
10852;BME280;5479;52.046;6.314;2023-02-04T01:27:05;103166.28;;;7.11;100.00
10852;BME280;5479;52.046;6.314;2023-02-04T01:29:33;103163.66;;;7.11;100.00
10852;BME280;5479;52.046;6.314;2023-02-04T01:32:02;103173.28;;;7.13;100.00
10852;BME280;5479;52.046;6.314;2023-02-04T01:34:30;103165.47;;;7.01;100.00
10852;BME280;5479;52.046;6.314;2023-02-04T01:36:58;103176.06;;;6.92;100.00
10852;BME280;5479;52.046;6.314;2023-02-04T01:39:26;103185.72;;;6.95;100.00
10852;BME280;5479;52.046;6.314;2023-02-04T01:41:54;103181.38;;;6.89;100.00
10852;BME280;5479;52.046;6.314;2023-02-04T01:44:27;103183.13;;;6.89;100.00
10852;BME280;5479;52.046;6.314;2023-02-04T01:46:57;103189.31;;;6.85;100.00
10852;BME280;5479;52.046;6.314;2023-02-04T01:49:26;103198.97;;;6.80;100.00
10852;BME280;5479;52.046;6.314;2023-02-04T01:51:54;103210.41;;;6.79;100.00
10852;BME280;5479;52.046;6.314;2023-02-04T01:54:22;103201.59;;;6.81;100.00
10852;BME280;5479;52.046;6.314;2023-02-04T01:56:50;103201.69;;;6.67;100.00
10852;BME280;5479;52.046;6.314;2023-02-04T01:59:21;103206.94;;;6.67;100.00
10852;BME280;5479;52.046;6.314;2023-02-04T02:01:51;103206.91;;;6.69;100.00
10852;BME280;5479;52.046;6.314;2023-02-04T02:04:30;103213.97;;;6.68;100.00
10852;BME280;5479;52.046;6.314;2023-02-04T02:07:00;103217.50;;;6.66;100.00
10852;BME280;5479;52.046;6.314;2023-02-04T02:09:31;103204.34;;;6.63;100.00
10852;BME280;5479;52.046;6.314;2023-02-04T02:12:02;103209.59;;;6.63;100.00
10852;BME280;5479;52.046;6.314;2023-02-04T02:14:30;103213.13;;;6.59;100.00
10852;BME280;5479;52.046;6.314;2023-02-04T02:17:01;103214.91;;;6.54;100.00
10852;BME280;5479;52.046;6.314;2023-02-04T02:19:34;103216.66;;;6.53;100.00
10852;BME280;5479;52.046;6.314;2023-02-04T02:22:14;103220.19;;;6.48;100.00
10852;BME280;5479;52.046;6.314;2023-02-04T02:24:44;103221.09;;;6.42;100.00
10852;BME280;5479;52.046;6.314;2023-02-04T02:27:12;103219.34;;;6.40;100.00
10852;BME280;5479;52.046;6.314;2023-02-04T02:29:41;103213.22;;;6.32;100.00
10852;BME280;5479;52.046;6.314;2023-02-04T02:32:10;103212.38;;;6.31;100.00
10852;BME280;5479;52.046;6.314;2023-02-04T02:34:40;103213.28;;;6.26;100.00
10852;BME280;5479;52.046;6.314;2023-02-04T02:37:09;103221.16;;;6.27;100.00
10852;BME280;5479;52.046;6.314;2023-02-04T02:39:38;103222.88;;;6.30;100.00
10852;BME280;5479;52.046;6.314;2023-02-04T02:42:08;103235.19;;;6.19;100.00
10852;BME280;5479;52.046;6.314;2023-02-04T02:44:37;103233.44;;;6.19;100.00
10852;BME280;5479;52.046;6.314;2023-02-04T02:47:11;103235.22;;;6.17;100.00
10852;BME280;5479;52.046;6.314;2023-02-04T02:49:42;103229.06;;;6.20;100.00
10852;BME280;5479;52.046;6.314;2023-02-04T02:52:12;103236.06;;;6.21;100.00
10852;BME280;5479;52.046;6.314;2023-02-04T02:54:41;103237.84;;;6.20;100.00
10852;BME280;5479;52.046;6.314;2023-02-04T02:57:14;103229.94;;;6.19;100.00
10852;BME280;5479;52.046;6.314;2023-02-04T02:59:43;103234.34;;;6.17;100.00
10852;BME280;5479;52.046;6.314;2023-02-04T03:02:12;103243.09;;;6.19;100.00
10852;BME280;5479;52.046;6.314;2023-02-04T03:04:47;103242.19;;;6.24;100.00
10852;BME280;5479;52.046;6.314;2023-02-04T03:07:17;103246.59;;;6.24;100.00
10852;BME280;5479;52.046;6.314;2023-02-04T03:09:50;103244.84;;;6.26;100.00
10852;BME280;5479;52.046;6.314;2023-02-04T03:12:22;103258.88;;;6.22;100.00
10852;BME280;5479;52.046;6.314;2023-02-04T03:14:50;103248.38;;;6.20;100.00
10852;BME280;5479;52.046;6.314;2023-02-04T03:17:18;103260.66;;;6.14;100.00
10852;BME280;5479;52.046;6.314;2023-02-04T03:19:46;103253.66;;;6.13;100.00
10852;BME280;5479;52.046;6.314;2023-02-04T03:22:13;103259.75;;;6.10;100.00
10852;BME280;5479;52.046;6.314;2023-02-04T03:24:41;103261.53;;;6.08;100.00
10852;BME280;5479;52.046;6.314;2023-02-04T03:27:09;103256.28;;;6.08;100.00
10852;BME280;5479;52.046;6.314;2023-02-04T03:29:42;103265.91;;;6.14;100.00
10852;BME280;5479;52.046;6.314;2023-02-04T03:32:10;103263.28;;;6.15;100.00
10852;BME280;5479;52.046;6.314;2023-02-04T03:34:38;103265.03;;;6.12;100.00
10852;BME280;5479;52.046;6.314;2023-02-04T03:37:06;103268.53;;;6.11;100.00
10852;BME280;5479;52.046;6.314;2023-02-04T03:39:34;103277.34;;;6.10;100.00
10852;BME280;5479;52.046;6.314;2023-02-04T03:42:02;103273.81;;;6.09;100.00
10852;BME280;5479;52.046;6.314;2023-02-04T03:44:30;103279.06;;;6.11;100.00
10852;BME280;5479;52.046;6.314;2023-02-04T03:47:00;103289.59;;;6.12;100.00
10852;BME280;5479;52.046;6.314;2023-02-04T03:49:28;103279.06;;;6.09;100.00
10852;BME280;5479;52.046;6.314;2023-02-04T03:51:57;103283.47;;;6.15;100.00
10852;BME280;5479;52.046;6.314;2023-02-04T03:54:24;103279.94;;;6.14;100.00
10852;BME280;5479;52.046;6.314;2023-02-04T03:56:52;103270.31;;;6.12;100.00
10852;BME280;5479;52.046;6.314;2023-02-04T03:59:20;103267.69;;;6.12;100.00
10852;BME280;5479;52.046;6.314;2023-02-04T04:01:48;103271.19;;;6.15;100.00
10852;BME280;5479;52.046;6.314;2023-02-04T04:04:19;103282.59;;;6.13;100.00
10852;BME280;5479;52.046;6.314;2023-02-04T04:06:47;103279.03;;;6.18;100.00
10852;BME280;5479;52.046;6.314;2023-02-04T04:09:16;103276.44;;;6.23;100.00
10852;BME280;5479;52.046;6.314;2023-02-04T04:11:44;103281.69;;;6.20;100.00
10852;BME280;5479;52.046;6.314;2023-02-04T04:14:12;103282.56;;;6.22;100.00
10852;BME280;5479;52.046;6.314;2023-02-04T04:16:40;103278.19;;;6.12;100.00
10852;BME280;5479;52.046;6.314;2023-02-04T04:19:09;103290.44;;;6.16;100.00
10852;BME280;5479;52.046;6.314;2023-02-04T04:21:39;103294.88;;;6.15;100.00
10852;BME280;5479;52.046;6.314;2023-02-04T04:24:07;103293.97;;;6.15;100.00
10852;BME280;5479;52.046;6.314;2023-02-04T04:26:38;103292.22;;;6.17;100.00
10852;BME280;5479;52.046;6.314;2023-02-04T04:29:05;103297.47;;;6.20;100.00
10852;BME280;5479;52.046;6.314;2023-02-04T04:31:34;103290.44;;;6.19;100.00
10852;BME280;5479;52.046;6.314;2023-02-04T04:34:02;103301.84;;;6.19;100.00
10852;BME280;5479;52.046;6.314;2023-02-04T04:36:30;103308.00;;;6.20;100.00
10852;BME280;5479;52.046;6.314;2023-02-04T04:38:59;103321.16;;;6.23;100.00
10852;BME280;5479;52.046;6.314;2023-02-04T04:41:27;103313.22;;;6.29;100.00
10852;BME280;5479;52.046;6.314;2023-02-04T04:43:55;103315.88;;;6.29;100.00
10852;BME280;5479;52.046;6.314;2023-02-04T04:46:23;103323.75;;;6.29;100.00
10852;BME280;5479;52.046;6.314;2023-02-04T04:48:51;103323.78;;;6.27;100.00
10852;BME280;5479;52.046;6.314;2023-02-04T04:51:19;103318.50;;;6.30;100.00
10852;BME280;5479;52.046;6.314;2023-02-04T04:53:50;103327.28;;;6.28;100.00
10852;BME280;5479;52.046;6.314;2023-02-04T04:56:19;103323.75;;;6.32;100.00
10852;BME280;5479;52.046;6.314;2023-02-04T04:58:47;103325.53;;;6.27;100.00
10852;BME280;5479;52.046;6.314;2023-02-04T05:01:16;103330.81;;;6.22;100.00
10852;BME280;5479;52.046;6.314;2023-02-04T05:03:46;103331.69;;;6.26;100.00
10852;BME280;5479;52.046;6.314;2023-02-04T05:06:15;103340.47;;;6.20;100.00
10852;BME280;5479;52.046;6.314;2023-02-04T05:08:44;103337.81;;;6.19;100.00
10852;BME280;5479;52.046;6.314;2023-02-04T05:11:12;103341.31;;;6.27;100.00
10852;BME280;5479;52.046;6.314;2023-02-04T05:13:41;103343.09;;;6.28;100.00
10852;BME280;5479;52.046;6.314;2023-02-04T05:16:11;103350.06;;;6.29;100.00
10852;BME280;5479;52.046;6.314;2023-02-04T05:18:39;103349.22;;;6.21;100.00
10852;BME280;5479;52.046;6.314;2023-02-04T05:21:07;103347.50;;;6.15;100.00
10852;BME280;5479;52.046;6.314;2023-02-04T05:23:36;103353.59;;;6.16;100.00
10852;BME280;5479;52.046;6.314;2023-02-04T05:26:04;103352.72;;;6.11;100.00
10852;BME280;5479;52.046;6.314;2023-02-04T05:28:32;103351.84;;;6.05;100.00
10852;BME280;5479;52.046;6.314;2023-02-04T05:31:02;103356.25;;;6.06;100.00
10852;BME280;5479;52.046;6.314;2023-02-04T05:33:30;103361.50;;;6.14;100.00
10852;BME280;5479;52.046;6.314;2023-02-04T05:35:59;103361.50;;;6.06;100.00
10852;BME280;5479;52.046;6.314;2023-02-04T05:38:27;103365.91;;;6.01;100.00
10852;BME280;5479;52.046;6.314;2023-02-04T05:40:54;103362.38;;;6.02;100.00
10852;BME280;5479;52.046;6.314;2023-02-04T05:43:22;103365.91;;;5.98;100.00
10852;BME280;5479;52.046;6.314;2023-02-04T05:45:50;103364.13;;;6.03;100.00
10852;BME280;5479;52.046;6.314;2023-02-04T05:48:19;103364.13;;;6.03;100.00
10852;BME280;5479;52.046;6.314;2023-02-04T05:50:48;103364.13;;;6.00;100.00
10852;BME280;5479;52.046;6.314;2023-02-04T05:53:17;103358.00;;;6.00;100.00
10852;BME280;5479;52.046;6.314;2023-02-04T05:55:45;103362.38;;;5.99;100.00
10852;BME280;5479;52.046;6.314;2023-02-04T05:58:14;103361.50;;;5.97;100.00
10852;BME280;5479;52.046;6.314;2023-02-04T06:00:42;103369.41;;;6.03;100.00
10852;BME280;5479;52.046;6.314;2023-02-04T06:03:10;103374.66;;;6.03;100.00
10852;BME280;5479;52.046;6.314;2023-02-04T06:05:41;103374.66;;;6.03;100.00
10852;BME280;5479;52.046;6.314;2023-02-04T06:08:09;103365.00;;;6.02;100.00
10852;BME280;5479;52.046;6.314;2023-02-04T06:10:37;103372.91;;;6.05;100.00
10852;BME280;5479;52.046;6.314;2023-02-04T06:13:05;103379.91;;;6.00;100.00
10852;BME280;5479;52.046;6.314;2023-02-04T06:15:33;103385.19;;;6.03;100.00
10852;BME280;5479;52.046;6.314;2023-02-04T06:18:01;103387.81;;;6.00;100.00
10852;BME280;5479;52.046;6.314;2023-02-04T06:20:29;103386.94;;;6.01;100.00
10852;BME280;5479;52.046;6.314;2023-02-04T06:22:59;103391.31;;;6.01;100.00
10852;BME280;5479;52.046;6.314;2023-02-04T06:25:27;103388.69;;;6.02;100.00
10852;BME280;5479;52.046;6.314;2023-02-04T06:27:55;103406.22;;;6.03;100.00
10852;BME280;5479;52.046;6.314;2023-02-04T06:30:23;103398.31;;;6.05;100.00
10852;BME280;5479;52.046;6.314;2023-02-04T06:32:51;103410.59;;;6.03;100.00
10852;BME280;5479;52.046;6.314;2023-02-04T06:35:19;103401.84;;;6.04;100.00
10852;BME280;5479;52.046;6.314;2023-02-04T06:37:49;103412.38;;;6.07;100.00
10852;BME280;5479;52.046;6.314;2023-02-04T06:40:18;103404.47;;;6.08;100.00
10852;BME280;5479;52.046;6.314;2023-02-04T06:42:46;103410.59;;;6.11;100.00
10852;BME280;5479;52.046;6.314;2023-02-04T06:45:14;103406.25;;;6.13;100.00
10852;BME280;5479;52.046;6.314;2023-02-04T06:47:42;103404.47;;;6.12;100.00
10852;BME280;5479;52.046;6.314;2023-02-04T06:50:10;103410.63;;;6.09;100.00
10852;BME280;5479;52.046;6.314;2023-02-04T06:52:38;103414.13;;;6.10;100.00
10852;BME280;5479;52.046;6.314;2023-02-04T06:55:06;103415.00;;;6.08;100.00
10852;BME280;5479;52.046;6.314;2023-02-04T06:57:35;103418.53;;;6.04;100.00
10852;BME280;5479;52.046;6.314;2023-02-04T07:00:05;103415.00;;;6.04;100.00
10852;BME280;5479;52.046;6.314;2023-02-04T07:02:34;103415.88;;;6.04;100.00
10852;BME280;5479;52.046;6.314;2023-02-04T07:05:05;103418.50;;;6.03;100.00
10852;BME280;5479;52.046;6.314;2023-02-04T07:07:33;103422.00;;;6.03;100.00
10852;BME280;5479;52.046;6.314;2023-02-04T07:10:03;103425.50;;;6.02;100.00
10852;BME280;5479;52.046;6.314;2023-02-04T07:12:32;103425.53;;;6.04;100.00
10852;BME280;5479;52.046;6.314;2023-02-04T07:15:02;103432.53;;;6.06;100.00
10852;BME280;5479;52.046;6.314;2023-02-04T07:17:30;103429.91;;;6.08;100.00
10852;BME280;5479;52.046;6.314;2023-02-04T07:20:00;103438.66;;;6.10;100.00
10852;BME280;5479;52.046;6.314;2023-02-04T07:22:28;103443.94;;;6.13;100.00
10852;BME280;5479;52.046;6.314;2023-02-04T07:25:00;103446.59;;;6.15;100.00
10852;BME280;5479;52.046;6.314;2023-02-04T07:27:30;103449.22;;;6.12;100.00
10852;BME280;5479;52.046;6.314;2023-02-04T07:29:59;103457.09;;;6.08;100.00
10852;BME280;5479;52.046;6.314;2023-02-04T07:32:27;103457.09;;;6.08;100.00
10852;BME280;5479;52.046;6.314;2023-02-04T07:34:59;103465.00;;;6.12;100.00
10852;BME280;5479;52.046;6.314;2023-02-04T07:37:28;103465.88;;;6.14;100.00
10852;BME280;5479;52.046;6.314;2023-02-04T07:40:00;103465.00;;;6.15;100.00
10852;BME280;5479;52.046;6.314;2023-02-04T07:42:29;103461.47;;;6.19;100.00
10852;BME280;5479;52.046;6.314;2023-02-04T07:44:59;103472.91;;;6.15;100.00
10852;BME280;5479;52.046;6.314;2023-02-04T07:47:28;103479.91;;;6.16;100.00
10852;BME280;5479;52.046;6.314;2023-02-04T07:49:56;103472.03;;;6.23;100.00
10852;BME280;5479;52.046;6.314;2023-02-04T07:52:24;103480.81;;;6.31;100.00
10852;BME280;5479;52.046;6.314;2023-02-04T07:54:53;103476.44;;;6.39;100.00
10852;BME280;5479;52.046;6.314;2023-02-04T07:57:21;103476.44;;;6.47;100.00
10852;BME280;5479;52.046;6.314;2023-02-04T07:59:50;103483.44;;;6.51;100.00
10852;BME280;5479;52.046;6.314;2023-02-04T08:02:18;103493.97;;;6.54;100.00
10852;BME280;5479;52.046;6.314;2023-02-04T08:04:47;103506.28;;;6.55;100.00
10852;BME280;5479;52.046;6.314;2023-02-04T08:07:14;103495.75;;;6.55;100.00
10852;BME280;5479;52.046;6.314;2023-02-04T08:09:42;103501.00;;;6.64;100.00
10852;BME280;5479;52.046;6.314;2023-02-04T08:12:10;103501.00;;;6.64;100.00
10852;BME280;5479;52.046;6.314;2023-02-04T08:14:39;103507.13;;;6.69;100.00
10852;BME280;5479;52.046;6.314;2023-02-04T08:17:08;103518.56;;;6.74;100.00
10852;BME280;5479;52.046;6.314;2023-02-04T08:19:36;103518.53;;;6.89;100.00
10852;BME280;5479;52.046;6.314;2023-02-04T08:22:05;103522.03;;;6.88;100.00
10852;BME280;5479;52.046;6.314;2023-02-04T08:24:33;103533.47;;;6.80;100.00
10852;BME280;5479;52.046;6.314;2023-02-04T08:27:01;103530.84;;;6.87;100.00
10852;BME280;5479;52.046;6.314;2023-02-04T08:29:29;103533.47;;;6.87;100.00
10852;BME280;5479;52.046;6.314;2023-02-04T08:31:57;103525.56;;;6.93;100.00
10852;BME280;5479;52.046;6.314;2023-02-04T08:34:25;103530.81;;;6.99;100.00
10852;BME280;5479;52.046;6.314;2023-02-04T08:36:55;103532.59;;;7.03;100.00
10852;BME280;5479;52.046;6.314;2023-02-04T08:39:26;103529.94;;;7.08;100.00
10852;BME280;5479;52.046;6.314;2023-02-04T08:41:55;103543.13;;;7.11;100.00
10852;BME280;5479;52.046;6.314;2023-02-04T08:44:23;103548.38;;;7.09;100.00
10852;BME280;5479;52.046;6.314;2023-02-04T08:46:52;103546.59;;;7.23;100.00
10852;BME280;5479;52.046;6.314;2023-02-04T08:49:21;103545.72;;;7.27;100.00
10852;BME280;5479;52.046;6.314;2023-02-04T08:51:49;103547.47;;;7.32;100.00
10852;BME280;5479;52.046;6.314;2023-02-04T08:54:17;103545.66;;;7.41;100.00
10852;BME280;5479;52.046;6.314;2023-02-04T08:56:46;103551.78;;;7.49;100.00
10852;BME280;5479;52.046;6.314;2023-02-04T08:59:14;103551.81;;;7.54;100.00
10852;BME280;5479;52.046;6.314;2023-02-04T09:01:43;103550.94;;;7.49;100.00
10852;BME280;5479;52.046;6.314;2023-02-04T09:04:14;103550.03;;;7.47;100.00
10852;BME280;5479;52.046;6.314;2023-02-04T09:06:42;103552.66;;;7.56;100.00
10852;BME280;5479;52.046;6.314;2023-02-04T09:09:10;103557.94;;;7.47;100.00
10852;BME280;5479;52.046;6.314;2023-02-04T09:11:38;103560.59;;;7.48;100.00
10852;BME280;5479;52.046;6.314;2023-02-04T09:14:08;103559.63;;;7.76;100.00
10852;BME280;5479;52.046;6.314;2023-02-04T09:16:36;103565.75;;;7.78;100.00
10852;BME280;5479;52.046;6.314;2023-02-04T09:19:04;103561.41;;;7.71;100.00
10852;BME280;5479;52.046;6.314;2023-02-04T09:21:34;103566.59;;;7.91;100.00
10852;BME280;5479;52.046;6.314;2023-02-04T09:24:01;103566.66;;;7.80;100.00
10852;BME280;5479;52.046;6.314;2023-02-04T09:26:29;103566.66;;;7.80;100.00
10852;BME280;5479;52.046;6.314;2023-02-04T09:28:57;103570.09;;;7.95;100.00
10852;BME280;5479;52.046;6.314;2023-02-04T09:31:28;103556.81;;;8.13;100.00
10852;BME280;5479;52.046;6.314;2023-02-04T09:33:55;103562.91;;;8.25;100.00
10852;BME280;5479;52.046;6.314;2023-02-04T09:36:23;103568.19;;;8.34;100.00
10852;BME280;5479;52.046;6.314;2023-02-04T09:38:54;103569.84;;;8.51;100.00
10852;BME280;5479;52.046;6.314;2023-02-04T09:41:22;103562.84;;;8.39;100.00
10852;BME280;5479;52.046;6.314;2023-02-04T09:43:50;103559.13;;;8.67;100.00
10852;BME280;5479;52.046;6.314;2023-02-04T09:46:20;103561.31;;;9.20;100.00
10852;BME280;5479;52.046;6.314;2023-02-04T09:48:50;103559.63;;;9.10;100.00
10852;BME280;5479;52.046;6.314;2023-02-04T09:51:25;103561.19;;;9.32;100.00
10852;BME280;5479;52.046;6.314;2023-02-04T09:53:57;103559.94;;;9.63;100.00
10852;BME280;5479;52.046;6.314;2023-02-04T09:56:29;103559.59;;;9.91;100.00
10852;BME280;5479;52.046;6.314;2023-02-04T09:58:58;103556.72;;;10.70;100.00
10852;BME280;5479;52.046;6.314;2023-02-04T10:01:27;103562.97;;;11.16;100.00
10852;BME280;5479;52.046;6.314;2023-02-04T10:04:00;103563.25;;;11.50;100.00
10852;BME280;5479;52.046;6.314;2023-02-04T10:06:28;103567.91;;;10.88;100.00
10852;BME280;5479;52.046;6.314;2023-02-04T10:08:59;103567.47;;;11.60;100.00
10852;BME280;5479;52.046;6.314;2023-02-04T10:11:31;103563.94;;;12.78;100.00
10852;BME280;5479;52.046;6.314;2023-02-04T10:14:01;103571.94;;;12.41;100.00
10852;BME280;5479;52.046;6.314;2023-02-04T10:16:32;103567.06;;;12.59;100.00
10852;BME280;5479;52.046;6.314;2023-02-04T10:19:06;103573.84;;;13.06;100.00
10852;BME280;5479;52.046;6.314;2023-02-04T10:21:38;103573.00;;;12.70;100.00
10852;BME280;5479;52.046;6.314;2023-02-04T10:24:11;103586.00;;;12.46;100.00
10852;BME280;5479;52.046;6.314;2023-02-04T10:26:41;103584.91;;;12.15;100.00
10852;BME280;5479;52.046;6.314;2023-02-04T10:29:13;103582.25;;;11.73;100.00
10852;BME280;5479;52.046;6.314;2023-02-04T10:31:43;103590.09;;;11.32;100.00
10852;BME280;5479;52.046;6.314;2023-02-04T10:34:15;103591.31;;;11.14;100.00
10852;BME280;5479;52.046;6.314;2023-02-04T10:36:45;103594.50;;;10.81;100.00
10852;BME280;5479;52.046;6.314;2023-02-04T10:39:17;103601.75;;;10.71;100.00
10852;BME280;5479;52.046;6.314;2023-02-04T10:41:48;103594.78;;;10.66;100.00
10852;BME280;5479;52.046;6.314;2023-02-04T10:44:18;103596.16;;;10.32;100.00
10852;BME280;5479;52.046;6.314;2023-02-04T10:46:47;103602.34;;;10.90;100.00
10852;BME280;5479;52.046;6.314;2023-02-04T10:49:19;103608.84;;;11.23;100.00
10852;BME280;5479;52.046;6.314;2023-02-04T10:51:48;103599.78;;;11.34;100.00
10852;BME280;5479;52.046;6.314;2023-02-04T10:54:19;103610.25;;;10.91;100.00
10852;BME280;5479;52.046;6.314;2023-02-04T10:57:04;103604.66;;;11.10;100.00
10852;BME280;5479;52.046;6.314;2023-02-04T10:59:35;103608.66;;;11.33;100.00
10852;BME280;5479;52.046;6.314;2023-02-04T11:02:30;103615.84;;;11.27;100.00
10852;BME280;5479;52.046;6.314;2023-02-04T11:05:01;103609.53;;;11.34;100.00
10852;BME280;5479;52.046;6.314;2023-02-04T11:07:29;103608.56;;;11.39;100.00
10852;BME280;5479;52.046;6.314;2023-02-04T11:09:57;103607.53;;;11.45;100.00
10852;BME280;5479;52.046;6.314;2023-02-04T11:12:37;103599.28;;;11.14;100.00
10852;BME280;5479;52.046;6.314;2023-02-04T11:15:50;103603.47;;;11.27;100.00
10852;BME280;5479;52.046;6.314;2023-02-04T11:18:28;103600.84;;;11.26;100.00
10852;BME280;5479;52.046;6.314;2023-02-04T11:20:58;103602.03;;;10.53;100.00
10852;BME280;5479;52.046;6.314;2023-02-04T11:23:34;103607.44;;;10.44;100.00
10852;BME280;5479;52.046;6.314;2023-02-04T11:26:05;103610.09;;;10.46;100.00
10852;BME280;5479;52.046;6.314;2023-02-04T11:28:50;103603.03;;;10.45;100.00
10852;BME280;5479;52.046;6.314;2023-02-04T11:31:28;103609.13;;;10.51;100.00
10852;BME280;5479;52.046;6.314;2023-02-04T11:34:07;103611.63;;;10.62;100.00
10852;BME280;5479;52.046;6.314;2023-02-04T11:37:01;103608.75;;;10.75;100.00
10852;BME280;5479;52.046;6.314;2023-02-04T11:39:33;103614.75;;;10.86;100.00
10852;BME280;5479;52.046;6.314;2023-02-04T11:42:05;103604.97;;;10.35;100.00
10852;BME280;5479;52.046;6.314;2023-02-04T11:44:38;103612.97;;;10.29;100.00
10852;BME280;5479;52.046;6.314;2023-02-04T11:47:07;103612.34;;;10.71;100.00
10852;BME280;5479;52.046;6.314;2023-02-04T11:49:36;103607.00;;;10.74;100.00
10852;BME280;5479;52.046;6.314;2023-02-04T11:52:06;103600.91;;;11.23;100.00
10852;BME280;5479;52.046;6.314;2023-02-04T11:54:40;103604.88;;;11.46;100.00
10852;BME280;5479;52.046;6.314;2023-02-04T11:57:10;103594.78;;;11.64;100.00
10852;BME280;5479;52.046;6.314;2023-02-04T11:59:40;103598.81;;;11.87;100.00
10852;BME280;5479;52.046;6.314;2023-02-04T12:02:14;103605.72;;;11.50;100.00
10852;BME280;5479;52.046;6.314;2023-02-04T12:04:51;103599.72;;;11.37;100.00
10852;BME280;5479;52.046;6.314;2023-02-04T12:07:28;103615.63;;;10.87;100.00
10852;BME280;5479;52.046;6.314;2023-02-04T12:09:56;103615.72;;;10.82;100.00
10852;BME280;5479;52.046;6.314;2023-02-04T12:12:29;103605.03;;;10.88;100.00
10852;BME280;5479;52.046;6.314;2023-02-04T12:15:08;103608.75;;;10.75;100.00
10852;BME280;5479;52.046;6.314;2023-02-04T12:17:44;103603.16;;;10.94;100.00
10852;BME280;5479;52.046;6.314;2023-02-04T12:20:12;103600.59;;;11.38;100.00
10852;BME280;5479;52.046;6.314;2023-02-04T12:22:41;103598.28;;;11.67;100.00
10852;BME280;5479;52.046;6.314;2023-02-04T12:25:10;103604.09;;;11.40;100.00
10852;BME280;5479;52.046;6.314;2023-02-04T12:27:42;103602.81;;;11.15;100.00
10852;BME280;5479;52.046;6.314;2023-02-04T12:30:11;103597.75;;;11.50;100.00
10852;BME280;5479;52.046;6.314;2023-02-04T12:32:40;103597.88;;;11.88;100.00
10852;BME280;5479;52.046;6.314;2023-02-04T12:35:08;103595.44;;;11.79;100.00
10852;BME280;5479;52.046;6.314;2023-02-04T12:37:36;103597.06;;;11.39;100.00
10852;BME280;5479;52.046;6.314;2023-02-04T12:40:08;103588.16;;;11.41;100.00
10852;BME280;5479;52.046;6.314;2023-02-04T12:42:37;103588.19;;;11.86;100.00
10852;BME280;5479;52.046;6.314;2023-02-04T12:45:06;103595.28;;;11.39;100.00
10852;BME280;5479;52.046;6.314;2023-02-04T12:47:34;103601.13;;;11.09;100.00
10852;BME280;5479;52.046;6.314;2023-02-04T12:50:03;103593.44;;;11.43;100.00
10852;BME280;5479;52.046;6.314;2023-02-04T12:52:31;103594.41;;;11.37;100.00
10852;BME280;5479;52.046;6.314;2023-02-04T12:54:59;103593.28;;;11.52;100.00
10852;BME280;5479;52.046;6.314;2023-02-04T12:57:29;103604.63;;;11.13;100.00
10852;BME280;5479;52.046;6.314;2023-02-04T12:59:58;103604.91;;;10.96;100.00
10852;BME280;5479;52.046;6.314;2023-02-04T13:02:27;103595.03;;;11.03;100.00
10852;BME280;5479;52.046;6.314;2023-02-04T13:04:56;103600.75;;;10.80;100.00
10852;BME280;5479;52.046;6.314;2023-02-04T13:07:24;103603.59;;;11.20;100.00
10852;BME280;5479;52.046;6.314;2023-02-04T13:09:52;103597.25;;;11.76;100.00